createdAt,value
2022-08-09T00:01:43.189Z,18.35
2022-08-09T00:05:03.480Z,18.34
2022-08-09T00:08:10.158Z,18.34
2022-08-09T00:11:24.864Z,18.23
2022-08-09T00:14:37.879Z,18.06
2022-08-09T00:18:07.757Z,17.97
2022-08-09T00:21:04.548Z,17.89
2022-08-09T00:24:17.729Z,17.96
2022-08-09T00:27:31.387Z,18.04
2022-08-09T00:30:53.572Z,17.99
2022-08-09T00:34:05.166Z,18.02
2022-08-09T00:37:17.100Z,18.05
2022-08-09T00:40:31.059Z,17.99
2022-08-09T00:44:14.160Z,17.91
2022-08-09T00:47:05.055Z,17.95
2022-08-09T00:50:14.570Z,17.93
2022-08-09T00:53:27.721Z,17.94
2022-08-09T00:56:39.326Z,17.91
2022-08-09T00:59:53.171Z,17.94
2022-08-09T01:03:12.690Z,17.94
2022-08-09T01:06:53.506Z,17.94
2022-08-09T01:09:56.448Z,17.91
2022-08-09T01:13:17.017Z,17.81
2022-08-09T01:16:47.411Z,17.80
2022-08-09T01:20:03.146Z,17.76
2022-08-09T01:24:01.902Z,17.74
2022-08-09T01:27:02.589Z,17.74
2022-08-09T01:30:28.673Z,17.77
2022-08-09T01:33:37.418Z,17.68
2022-08-09T01:36:48.719Z,17.61
2022-08-09T01:40:04.878Z,17.60
2022-08-09T01:43:17.737Z,17.61
2022-08-09T01:46:34.707Z,17.62
2022-08-09T01:49:50.849Z,17.68
2022-08-09T01:53:19.141Z,17.62
2022-08-09T01:56:19.482Z,17.61
2022-08-09T01:59:32.646Z,17.65
2022-08-09T02:02:50.432Z,17.58
2022-08-09T02:06:06.435Z,17.56
2022-08-09T02:09:20.317Z,17.47
2022-08-09T02:12:39.296Z,17.46
2022-08-09T02:15:56.390Z,17.43
2022-08-09T02:19:06.473Z,17.48
2022-08-09T02:22:31.617Z,17.48
2022-08-09T02:25:49.399Z,17.42
2022-08-09T02:29:03.708Z,17.41
2022-08-09T02:32:18.604Z,17.36
2022-08-09T02:36:02.860Z,17.33
2022-08-09T02:38:51.287Z,17.34
2022-08-09T02:42:07.841Z,17.32
2022-08-09T02:45:21.797Z,17.33
2022-08-09T02:48:37.966Z,17.24
2022-08-09T02:51:53.916Z,17.15
2022-08-09T02:55:21.095Z,17.04
2022-08-09T02:58:35.934Z,17.03
2022-08-09T03:02:05.745Z,17.00
2022-08-09T03:04:53.731Z,17.01
2022-08-09T03:08:06.833Z,16.93
2022-08-09T03:12:04.241Z,16.90
2022-08-09T03:14:36.937Z,16.92
2022-08-09T03:17:54.010Z,16.92
2022-08-09T03:21:05.274Z,16.96
2022-08-09T03:24:31.274Z,16.96
2022-08-09T03:27:31.504Z,16.85
2022-08-09T03:30:46.046Z,16.81
2022-08-09T03:34:03.202Z,16.86
2022-08-09T03:37:56.128Z,16.85
2022-08-09T03:40:30.860Z,16.91
2022-08-09T03:43:42.525Z,16.95
2022-08-09T03:46:54.081Z,17.00
2022-08-09T03:50:09.101Z,17.01
2022-08-09T03:53:24.182Z,17.04
2022-08-09T03:56:37.974Z,17.07
2022-08-09T03:59:54.514Z,17.10
2022-08-09T04:03:06.779Z,17.07
2022-08-09T04:06:18.841Z,17.04
2022-08-09T04:09:48.074Z,17.03
2022-08-09T04:12:53.087Z,17.02
2022-08-09T04:16:19.919Z,17.03
2022-08-09T04:19:43.090Z,17.04
2022-08-09T04:22:33.382Z,17.01
2022-08-09T04:25:51.973Z,16.96
2022-08-09T04:29:01.390Z,16.91
2022-08-09T04:32:12.940Z,16.89
2022-08-09T04:35:26.291Z,16.86
2022-08-09T04:38:39.885Z,16.96
2022-08-09T04:41:53.549Z,17.09
2022-08-09T04:45:05.921Z,17.21
2022-08-09T04:48:17.671Z,17.30
2022-08-09T04:51:29.383Z,17.38
2022-08-09T04:54:43.465Z,17.50
2022-08-09T04:58:01.454Z,17.66
2022-08-09T05:01:16.309Z,17.70
2022-08-09T05:04:22.973Z,17.91
2022-08-09T05:07:36.627Z,18.12
2022-08-09T05:10:48.367Z,18.23
2022-08-09T05:13:59.900Z,18.33
2022-08-09T05:17:15.419Z,18.43
2022-08-09T05:20:29.537Z,18.43
2022-08-09T05:23:54.103Z,18.48
2022-08-09T05:26:53.361Z,18.44
2022-08-09T05:30:06.388Z,18.40
2022-08-09T05:33:19.051Z,18.38
2022-08-09T05:36:30.509Z,18.42
2022-08-09T05:39:45.877Z,18.45
2022-08-09T05:42:57.634Z,18.41
2022-08-09T05:46:10.894Z,18.43
2022-08-09T05:50:19.607Z,18.48
2022-08-09T05:52:38.575Z,18.47
2022-08-09T05:55:50.657Z,18.57
2022-08-09T05:59:03.782Z,18.60
2022-08-09T06:02:17.114Z,18.60
2022-08-09T06:05:30.654Z,18.69
2022-08-09T06:08:42.976Z,18.70
2022-08-09T06:11:57.152Z,18.72
2022-08-09T06:15:10.438Z,18.87
2022-08-09T06:18:24.760Z,19.22
2022-08-09T06:21:36.052Z,19.42
2022-08-09T06:24:49.660Z,19.61
2022-08-09T06:28:03.784Z,19.89
2022-08-09T06:31:16.638Z,20.13
2022-08-09T06:34:29.913Z,20.31
2022-08-09T06:37:52.871Z,20.60
2022-08-09T06:40:56.249Z,20.82
2022-08-09T06:44:08.636Z,21.30
2022-08-09T06:47:20.312Z,22.01
2022-08-09T06:50:33.627Z,22.71
2022-08-09T06:53:45.888Z,23.15
2022-08-09T06:56:59.438Z,23.25
2022-08-09T07:00:50.843Z,23.69
2022-08-09T07:03:29.026Z,24.16
2022-08-09T07:06:41.703Z,23.95
2022-08-09T07:10:04.070Z,23.49
2022-08-09T07:13:27.208Z,23.39
2022-08-09T07:16:39.631Z,23.57
2022-08-09T07:19:34.668Z,23.58
2022-08-09T07:22:53.233Z,24.40
2022-08-09T07:26:02.654Z,24.98
2022-08-09T07:29:14.035Z,25.58
2022-08-09T07:32:33.487Z,25.42
2022-08-09T07:35:54.019Z,25.73
2022-08-09T07:39:00.991Z,25.81
2022-08-09T07:42:09.606Z,25.91
2022-08-09T07:45:36.965Z,26.23
2022-08-09T07:48:37.089Z,26.47
2022-08-09T07:52:05.049Z,26.93
2022-08-09T07:55:09.554Z,26.91
2022-08-09T07:58:18.001Z,27.20
2022-08-09T08:01:33.117Z,27.60
2022-08-09T08:04:48.974Z,28.07
2022-08-09T08:09:01.897Z,28.30
2022-08-09T08:12:09.385Z,28.52
2022-08-09T08:14:26.030Z,28.25
2022-08-09T08:17:53.722Z,27.82
2022-08-09T08:20:52.411Z,27.89
2022-08-09T08:24:11.776Z,28.10
2022-08-09T08:27:18.582Z,27.24
2022-08-09T08:30:30.744Z,27.81
2022-08-09T08:33:52.868Z,27.89
2022-08-09T08:36:58.437Z,28.31
2022-08-09T08:40:12.567Z,28.40
2022-08-09T08:43:27.090Z,28.54
2022-08-09T08:46:59.980Z,28.35
2022-08-09T08:49:59.350Z,28.31
2022-08-09T08:53:16.120Z,27.08
2022-08-09T08:56:28.488Z,27.56
2022-08-09T08:59:46.859Z,27.89
2022-08-09T09:02:59.464Z,28.59
2022-08-09T09:06:11.377Z,28.45
2022-08-09T09:09:58.148Z,28.63
2022-08-09T09:12:39.124Z,28.80
2022-08-09T09:15:51.854Z,29.45
2022-08-09T09:19:37.318Z,28.90
2022-08-09T09:22:28.571Z,28.22
2022-08-09T09:26:01.443Z,28.85
2022-08-09T09:29:03.891Z,29.30
2022-08-09T09:32:15.906Z,29.61
2022-08-09T09:35:27.723Z,29.94
2022-08-09T09:38:56.495Z,29.97
2022-08-09T09:42:11.866Z,29.91
2022-08-09T09:45:26.307Z,29.98
2022-08-09T09:48:37.711Z,29.46
2022-08-09T09:51:51.561Z,29.40
2022-08-09T09:55:24.329Z,30.00
2022-08-09T09:58:29.144Z,29.23
2022-08-09T10:01:43.191Z,28.26
2022-08-09T10:05:11.751Z,29.26
2022-08-09T10:08:29.942Z,30.04
2022-08-09T10:12:00.528Z,29.71
2022-08-09T10:15:17.545Z,30.08
2022-08-09T10:18:29.618Z,30.53
2022-08-09T10:21:52.368Z,29.57
2022-08-09T10:25:11.367Z,29.29
2022-08-09T10:28:19.731Z,29.82
2022-08-09T10:34:46.000Z,29.16
2022-08-09T10:37:59.944Z,29.91
2022-08-09T10:41:13.477Z,30.33
2022-08-09T10:44:30.639Z,30.63
2022-08-09T10:48:20.357Z,29.98
2022-08-09T10:51:16.927Z,29.92
2022-08-09T10:54:32.523Z,30.26
2022-08-09T10:57:45.197Z,30.51
2022-08-09T11:03:02.915Z,30.18
2022-08-09T11:04:32.472Z,30.22
2022-08-09T11:07:57.447Z,29.89
2022-08-09T11:11:08.789Z,29.11
2022-08-09T11:14:38.200Z,28.81
2022-08-09T11:18:02.844Z,27.87
2022-08-09T11:21:10.008Z,27.65
2022-08-09T11:24:21.700Z,27.33
2022-08-09T11:28:02.662Z,27.56
2022-08-09T11:30:53.706Z,28.21
2022-08-09T11:34:11.117Z,28.03
2022-08-09T11:37:41.121Z,27.85
2022-08-09T11:40:46.596Z,28.24
2022-08-09T11:43:58.543Z,28.40
2022-08-09T11:47:10.944Z,29.01
2022-08-09T11:50:56.657Z,29.24
2022-08-09T11:53:58.745Z,28.59
2022-08-09T11:56:54.786Z,28.03
2022-08-09T12:00:16.504Z,27.59
2022-08-09T12:03:50.508Z,27.20
2022-08-09T12:06:53.092Z,26.92
2022-08-09T12:09:58.182Z,27.54
2022-08-09T12:14:07.507Z,28.26
2022-08-09T12:16:37.353Z,28.53
2022-08-09T12:19:43.183Z,28.58
2022-08-09T12:22:57.016Z,28.93
2022-08-09T12:26:08.565Z,28.64
2022-08-09T12:29:33.769Z,28.63
2022-08-09T12:32:41.137Z,27.86
2022-08-09T12:35:53.829Z,27.94
2022-08-09T12:39:07.788Z,28.34
2022-08-09T12:42:20.611Z,28.79
2022-08-09T12:45:38.513Z,29.16
2022-08-09T12:48:49.190Z,28.69
2022-08-09T12:52:03.827Z,28.44
2022-08-09T12:56:16.129Z,28.60
2022-08-09T12:58:32.794Z,29.00
2022-08-09T13:01:49.923Z,28.60
2022-08-09T13:05:10.081Z,28.37
2022-08-09T13:08:40.293Z,28.62
2022-08-09T13:11:42.489Z,28.76
2022-08-09T13:14:55.251Z,28.63
2022-08-09T13:18:17.779Z,28.86
2022-08-09T13:22:38.459Z,28.74
2022-08-09T13:24:54.310Z,28.97
2022-08-09T13:28:03.829Z,28.35
2022-08-09T13:32:14.841Z,28.62
2022-08-09T13:34:32.080Z,28.94
2022-08-09T13:37:51.835Z,28.57
2022-08-09T13:41:51.800Z,27.97
2022-08-09T13:44:19.912Z,27.80
2022-08-09T13:47:43.982Z,27.30
2022-08-09T13:50:48.262Z,27.02
2022-08-09T13:54:03.263Z,26.92
2022-08-09T13:57:35.518Z,26.80
2022-08-09T14:00:30.317Z,26.56
2022-08-09T14:04:03.655Z,27.01
2022-08-09T14:07:04.179Z,27.36
2022-08-09T14:10:37.341Z,27.20
2022-08-09T14:14:22.320Z,27.26
2022-08-09T14:16:48.763Z,27.12
2022-08-09T14:20:00.640Z,26.91
2022-08-09T14:23:20.239Z,26.76
2022-08-09T14:26:31.659Z,26.60
2022-08-09T14:30:34.701Z,26.50
2022-08-09T14:32:56.957Z,26.37
2022-08-09T14:36:19.676Z,26.30
2022-08-09T14:39:45.395Z,26.20
2022-08-09T14:42:41.197Z,26.26
2022-08-09T14:46:55.972Z,26.69
2022-08-09T14:49:10.601Z,26.99
2022-08-09T14:52:21.043Z,27.02
2022-08-09T14:55:35.011Z,27.09
2022-08-09T14:58:46.620Z,26.52
2022-08-09T15:01:58.345Z,26.16
2022-08-09T15:05:11.591Z,26.02
2022-08-09T15:08:25.652Z,25.85
2022-08-09T15:11:37.165Z,25.78
2022-08-09T15:14:48.842Z,25.65
2022-08-09T15:18:02.691Z,25.72
2022-08-09T15:22:01.724Z,25.64
2022-08-09T15:24:29.023Z,25.62
2022-08-09T15:27:47.914Z,25.61
2022-08-09T15:31:01.954Z,25.56
2022-08-09T15:34:33.114Z,25.57
2022-08-09T15:37:57.305Z,25.45
2022-08-09T15:40:56.462Z,25.48
2022-08-09T15:44:08.754Z,25.30
2022-08-09T15:47:23.567Z,25.26
2022-08-09T15:50:34.555Z,25.09
2022-08-09T15:54:06.380Z,25.13
2022-08-09T15:57:01.869Z,25.02
2022-08-09T16:00:25.552Z,24.90
2022-08-09T16:03:38.251Z,25.01
2022-08-09T16:06:50.516Z,24.93
2022-08-09T16:10:04.829Z,24.88
2022-08-09T16:13:20.939Z,24.93
2022-08-09T16:16:31.766Z,24.88
2022-08-09T16:19:49.466Z,24.88
2022-08-09T16:22:58.559Z,24.80
2022-08-09T16:26:20.027Z,24.74
2022-08-09T16:29:37.662Z,24.66
2022-08-09T16:32:55.384Z,24.55
2022-08-09T16:36:14.499Z,24.63
2022-08-09T16:39:26.058Z,24.61
2022-08-09T16:42:38.966Z,24.50
2022-08-09T16:45:53.764Z,24.47
2022-08-09T16:49:17.604Z,24.45
2022-08-09T16:52:20.079Z,24.50
2022-08-09T16:56:00.134Z,24.37
2022-08-09T16:58:49.835Z,24.38
2022-08-09T17:01:59.920Z,24.40
2022-08-09T17:05:20.047Z,24.27
2022-08-09T17:08:44.991Z,24.21
2022-08-09T17:11:51.374Z,24.12
2022-08-09T17:15:00.524Z,24.06
2022-08-09T17:18:15.161Z,23.99
2022-08-09T17:21:29.117Z,23.84
2022-08-09T17:24:41.328Z,23.74
2022-08-09T17:27:55.260Z,23.70
2022-08-09T17:31:07.014Z,23.61
2022-08-09T17:34:59.801Z,23.54
2022-08-09T17:38:02.220Z,23.48
2022-08-09T17:40:50.391Z,23.35
2022-08-09T17:44:47.810Z,23.28
2022-08-09T17:47:16.439Z,23.09
2022-08-09T17:50:36.986Z,22.96
2022-08-09T17:53:51.520Z,22.83
2022-08-09T17:56:59.231Z,22.73
2022-08-09T18:00:15.344Z,22.60
2022-08-09T18:03:30.376Z,22.43
2022-08-09T18:06:49.620Z,22.34
2022-08-09T18:10:04.244Z,22.28
2022-08-09T18:13:53.706Z,22.13
2022-08-09T18:16:30.297Z,22.03
2022-08-09T18:20:58.424Z,22.03
2022-08-09T18:22:54.467Z,21.97
2022-08-09T18:26:06.676Z,21.90
2022-08-09T18:30:39.172Z,21.85
2022-08-09T18:32:34.083Z,21.83
2022-08-09T18:35:58.662Z,21.81
2022-08-09T18:39:02.652Z,21.73
2022-08-09T18:42:15.518Z,21.67
2022-08-09T18:46:47.765Z,21.57
2022-08-09T18:48:42.342Z,21.44
2022-08-09T18:51:58.209Z,21.32
2022-08-09T18:55:13.630Z,21.26
2022-08-09T18:58:32.468Z,21.20
2022-08-09T19:01:43.506Z,21.14
2022-08-09T19:05:03.279Z,21.05
2022-08-09T19:08:10.670Z,20.94
2022-08-09T19:11:19.275Z,20.89
2022-08-09T19:14:33.154Z,20.84
2022-08-09T19:17:56.406Z,20.76
2022-08-09T19:21:02.542Z,20.69
2022-08-09T19:24:37.210Z,20.53
2022-08-09T19:27:29.279Z,20.43
2022-08-09T19:30:44.212Z,20.37
2022-08-09T19:33:56.087Z,20.27
2022-08-09T19:37:08.300Z,20.23
2022-08-09T19:40:22.116Z,20.20
2022-08-09T19:44:00.859Z,20.13
2022-08-09T19:46:50.339Z,20.05
2022-08-09T19:50:08.176Z,19.86
2022-08-09T19:53:15.977Z,19.80
2022-08-09T19:56:29.685Z,19.74
2022-08-09T19:59:59.161Z,19.72
2022-08-09T20:04:29.817Z,19.63
2022-08-09T20:06:23.428Z,19.52
2022-08-09T20:09:45.773Z,19.48
2022-08-09T20:12:46.002Z,19.43
2022-08-09T22:12:06.550Z,17.24
2022-08-09T22:14:54.840Z,17.20
2022-08-09T22:18:13.858Z,17.18
2022-08-09T22:21:50.308Z,17.19
2022-08-09T22:32:29.667Z,17.12
2022-08-09T22:39:46.934Z,16.96
2022-08-09T22:42:39.879Z,16.92
2022-08-09T22:48:15.100Z,16.89
2022-08-09T22:49:23.436Z,16.86
2022-08-09T22:52:35.263Z,16.80
2022-08-09T22:56:30.973Z,16.74
2022-08-09T22:59:58.050Z,16.69
2022-08-09T23:02:31.521Z,16.73
2022-08-09T23:05:45.877Z,16.72
2022-08-09T23:08:59.407Z,16.66
2022-08-09T23:12:12.430Z,16.60
2022-08-09T23:15:24.089Z,16.62
2022-08-09T23:18:47.804Z,16.57
2022-08-09T23:22:11.284Z,16.60
2022-08-09T23:25:22.957Z,16.53
2022-08-09T23:28:42.453Z,16.46
2022-08-09T23:32:05.141Z,16.44
2022-08-09T23:35:19.867Z,16.34
2022-08-09T23:38:31.451Z,16.39
2022-08-09T23:41:46.222Z,16.36
2022-08-09T23:45:09.043Z,16.41
2022-08-09T23:51:45.838Z,16.36
2022-08-09T23:55:05.719Z,16.29
2022-08-09T23:58:24.243Z,16.29
